Time;durP1;ratioP1;P1;durP2;ratioP2;P2;SDS_P1;SDS_P2;PMS_P1;PMS_P2;Temp;Humidity;BMP_temperature;BMP_pressure;BME280_temperature;BME280_humidity;BME280_pressure;Samples;Min_cycle;Max_cycle;Signal;HPM_P1;HPM_P2
2022/03/18 05:18:54;;;;;;;23.60;11.55;;;;;;;1.04;53.90;102618.78;5537829;32;301739;-83
2022/03/18 05:21:58;;;;;;;21.95;11.15;;;;;;;1.04;53.42;102613.56;5547437;32;34108;-86
2022/03/18 05:25:01;;;;;;;22.33;11.10;;;;;;;1.04;53.45;102615.28;5546689;32;33853;-87
2022/03/18 05:28:04;;;;;;;21.90;11.85;;;;;;;1.05;53.57;102624.88;5546881;32;34407;-89
2022/03/18 05:31:07;;;;;;;18.80;11.80;;;;;;;1.07;53.27;102626.69;5546945;32;34467;-88
2022/03/18 05:34:10;;;;;;;18.40;11.50;;;;;;;1.13;53.12;102625.97;5547705;32;34080;-84
2022/03/18 05:37:12;;;;;;;17.85;10.68;;;;;;;1.25;52.34;102619.31;5547336;32;33386;-84
2022/03/18 05:40:18;;;;;;;21.02;11.93;;;;;;;1.25;52.02;102617.56;5548089;32;34019;-84
2022/03/18 05:43:20;;;;;;;21.50;11.73;;;;;;;1.34;52.72;102623.03;5548500;32;34335;-84
2022/03/18 05:46:23;;;;;;;19.08;11.20;;;;;;;1.37;50.94;102624.84;5549116;32;33582;-84
2022/03/18 05:49:26;;;;;;;19.85;11.25;;;;;;;1.41;50.63;102628.41;5553139;32;33931;-83
2022/03/18 05:52:30;;;;;;;20.50;10.90;;;;;;;1.40;50.90;102632.75;5558266;32;34058;-84
2022/03/18 05:58:56;;;;;;;21.10;11.05;;;;;;;1.54;50.75;102642.66;5555640;32;34627;-84
2022/03/18 06:02:00;;;;;;;20.33;10.75;;;;;;;1.57;49.81;102651.47;5558661;32;34982;-85
2022/03/18 06:05:03;;;;;;;22.90;11.02;;;;;;;1.52;50.15;102646.97;5549190;32;34315;-85
2022/03/18 06:14:49;;;;;;;20.98;11.52;;;;;;;1.69;49.71;102656.13;5545693;32;34004;-84
2022/03/18 06:17:52;;;;;;;21.17;11.57;;;;;;;1.81;49.64;102671.22;5542932;32;33864;-84
2022/03/18 06:20:56;;;;;;;21.62;12.43;;;;;;;1.84;49.57;102665.19;5544495;32;34279;-86
2022/03/18 06:23:58;;;;;;;22.60;12.07;;;;;;;1.93;48.88;102665.41;5546531;32;34576;-84
2022/03/18 06:27:02;;;;;;;19.83;11.50;;;;;;;2.02;48.91;102664.75;5546395;32;34642;-84
2022/03/18 06:30:05;;;;;;;20.05;11.90;;;;;;;2.04;49.02;102670.87;5535319;32;34019;-84
2022/03/18 06:33:08;;;;;;;20.67;11.63;;;;;;;2.19;49.21;102677.31;5535136;32;34578;-83
2022/03/18 06:36:11;;;;;;;19.58;11.77;;;;;;;2.30;47.86;102683.69;5538583;32;34657;-83
2022/03/18 06:39:14;;;;;;;20.17;11.30;;;;;;;2.26;47.77;102687.09;5537891;32;34123;-83
2022/03/18 06:42:17;;;;;;;20.23;11.63;;;;;;;2.21;48.23;102686.09;5536948;32;34081;-84
2022/03/18 06:45:25;;;;;;;21.73;11.90;;;;;;;2.32;48.12;102689.84;5539069;32;34766;-83
2022/03/18 06:48:28;;;;;;;19.48;11.38;;;;;;;2.43;47.84;102695.31;5535412;32;34698;-83
2022/03/18 06:51:31;;;;;;;19.85;12.10;;;;;;;2.41;47.69;102695.28;5535442;32;34188;-84
2022/03/18 06:54:34;;;;;;;24.10;11.38;;;;;;;2.36;47.90;102698.66;5533819;32;34574;-85
2022/03/18 06:57:37;;;;;;;20.20;11.40;;;;;;;2.51;47.34;102706.84;5539508;32;34159;-88
2022/03/18 07:00:40;;;;;;;20.92;11.75;;;;;;;2.54;47.34;102699.06;5531965;32;34324;-90
2022/03/18 07:03:43;;;;;;;18.85;11.43;;;;;;;2.54;47.43;102704.31;5534924;32;33840;-89
2022/03/18 07:06:46;;;;;;;18.05;11.25;;;;;;;2.65;47.02;102704.53;5537888;32;33877;-86
2022/03/18 07:09:49;;;;;;;22.35;11.98;;;;;;;2.87;47.09;102704.94;5535125;32;34216;-86
2022/03/18 07:12:52;;;;;;;19.98;12.00;;;;;;;2.66;46.77;102708.91;5534466;32;32571;-85
2022/03/18 07:15:55;;;;;;;20.25;11.63;;;;;;;2.69;46.64;102713.34;5552771;32;34296;-84
2022/03/18 07:18:58;;;;;;;24.48;12.25;;;;;;;2.64;46.70;102712.34;5565885;32;34106;-85
2022/03/18 07:22:01;;;;;;;20.10;12.50;;;;;;;2.97;46.27;102712.16;5562156;32;35694;-84
2022/03/18 07:25:04;;;;;;;23.95;11.55;;;;;;;3.18;45.84;102723.03;5553640;32;34137;-84
2022/03/18 07:28:09;;;;;;;18.70;10.50;;;;;;;3.39;45.54;102724.28;5552480;32;33863;-84
2022/03/18 07:31:13;;;;;;;21.67;11.85;;;;;;;3.16;45.11;102730.00;5551792;32;33888;-84
2022/03/18 07:34:15;;;;;;;19.55;12.02;;;;;;;3.31;45.06;102729.38;5552458;32;34365;-84
2022/03/18 07:37:18;;;;;;;22.00;12.68;;;;;;;3.55;45.23;102736.81;5552751;32;33894;-85
2022/03/18 07:40:21;;;;;;;19.98;11.90;;;;;;;3.68;44.52;102748.44;5558437;32;33978;-84
2022/03/18 07:43:24;;;;;;;21.25;13.00;;;;;;;3.78;44.35;102752.09;5558530;32;33970;-84
2022/03/18 07:46:27;;;;;;;20.40;11.68;;;;;;;4.00;43.82;102753.34;5552186;32;33958;-83
2022/03/18 07:49:30;;;;;;;20.80;12.77;;;;;;;3.81;44.22;102748.66;5525925;32;34076;-83
2022/03/18 07:52:36;;;;;;;23.12;12.23;;;;;;;4.10;43.60;102750.84;5513835;32;34150;-84
2022/03/18 07:55:40;;;;;;;22.48;12.50;;;;;;;4.24;43.65;102749.31;5513988;32;34235;-84
2022/03/18 07:58:42;;;;;;;20.02;12.93;;;;;;;4.23;42.85;102752.78;5514367;32;33957;-83
2022/03/18 08:01:45;;;;;;;21.02;12.77;;;;;;;4.03;43.18;102756.00;5524569;32;34256;-82
2022/03/18 08:04:53;;;;;;;22.85;12.57;;;;;;;3.93;43.54;102756.72;5517837;32;34836;-82
2022/03/18 08:07:57;;;;;;;18.17;12.10;;;;;;;4.52;42.53;102752.34;5514237;32;34113;-81
2022/03/18 08:11:00;;;;;;;23.17;12.65;;;;;;;5.02;41.32;102760.84;5516682;32;34055;-83
2022/03/18 08:14:06;;;;;;;21.45;13.00;;;;;;;5.15;41.09;102763.62;5529249;27;34883;-86
2022/03/18 08:17:11;;;;;;;22.62;13.38;;;;;;;5.34;40.87;102760.31;5471948;32;33107;-86
2022/03/18 08:20:14;;;;;;;24.20;14.10;;;;;;;5.70;40.50;102765.06;5474116;32;33947;-86
2022/03/18 08:23:20;;;;;;;22.80;13.13;;;;;;;5.37;40.44;102763.00;5477609;32;33615;-85
2022/03/18 08:26:23;;;;;;;22.77;14.27;;;;;;;5.74;40.21;102767.75;5474742;32;34188;-85
2022/03/18 08:29:25;;;;;;;27.45;14.18;;;;;;;6.38;39.77;102781.44;5475054;32;34673;-86
2022/03/18 08:32:29;;;;;;;27.10;14.50;;;;;;;6.89;38.94;102780.84;5479603;32;34036;-87
2022/03/18 08:35:32;;;;;;;21.17;13.55;;;;;;;6.37;38.73;102784.97;5477522;32;34492;-86
2022/03/18 08:38:35;;;;;;;21.70;14.27;;;;;;;6.87;38.14;102779.97;5480530;32;34440;-86
2022/03/18 08:41:38;;;;;;;24.27;13.55;;;;;;;6.78;38.37;102785.22;5475694;32;34005;-86
2022/03/18 08:44:40;;;;;;;26.20;14.80;;;;;;;6.91;38.28;102788.75;5477873;32;33760;-87
2022/03/18 08:47:44;;;;;;;26.50;14.50;;;;;;;6.57;38.79;102787.72;5476761;32;33955;-86
2022/03/18 08:50:47;;;;;;;26.42;14.85;;;;;;;5.86;39.90;102789.78;5475090;32;34804;-86
2022/03/18 08:53:49;;;;;;;23.87;14.65;;;;;;;6.09;40.70;102783.88;5464162;32;33019;-86
2022/03/18 08:56:52;;;;;;;23.52;14.30;;;;;;;6.49;40.42;102791.19;5485163;32;33633;-86
2022/03/18 08:59:56;;;;;;;23.58;14.73;;;;;;;6.71;39.77;102786.91;5477450;32;35152;-87
2022/03/18 09:02:58;;;;;;;21.58;13.93;;;;;;;7.00;39.47;102796.75;5478555;32;33467;-86
2022/03/18 09:06:03;;;;;;;23.17;14.77;;;;;;;7.24;38.98;102803.84;5483131;32;34597;-86
2022/03/18 09:09:06;;;;;;;24.85;15.90;;;;;;;6.76;39.02;102801.03;5478305;32;33963;-86
2022/03/18 09:12:09;;;;;;;23.83;14.85;;;;;;;6.84;39.62;102804.56;5474348;32;34818;-87
2022/03/18 09:15:12;;;;;;;29.70;15.90;;;;;;;7.16;39.41;102810.88;5474227;32;33809;-86
2022/03/18 09:18:15;;;;;;;25.95;16.15;;;;;;;7.57;39.05;102811.88;5473119;32;34732;-88
2022/03/18 09:21:18;;;;;;;25.67;15.43;;;;;;;7.87;37.59;102814.53;5472885;32;33809;-88
2022/03/18 09:24:20;;;;;;;27.50;15.90;;;;;;;7.15;38.66;102815.25;5472244;32;34100;-87
2022/03/18 09:27:23;;;;;;;26.50;15.23;;;;;;;7.14;38.50;102815.25;5473038;32;34000;-88
2022/03/18 09:30:33;;;;;;;27.27;15.68;;;;;;;6.90;38.98;102814.28;5474521;32;33457;-87
2022/03/18 09:33:36;;;;;;;32.33;15.90;;;;;;;7.58;38.07;102808.34;5473162;32;34794;-87
2022/03/18 09:36:39;;;;;;;29.45;15.60;;;;;;;7.71;38.13;102805.72;5473353;32;34407;-87
2022/03/18 09:39:47;;;;;;;28.75;16.33;;;;;;;7.41;38.76;102813.59;5476396;32;34193;-87
2022/03/18 09:42:57;;;;;;;28.33;17.05;;;;;;;7.80;38.05;102819.81;5471987;32;34208;-87
2022/03/18 09:46:02;;;;;;;31.67;17.27;;;;;;;7.52;38.01;102816.25;5474962;32;33520;-87
2022/03/18 09:49:25;;;;;;;30.58;16.87;;;;;;;7.58;38.23;102818.91;5474025;32;34369;-88
2022/03/18 09:52:28;;;;;;;29.92;16.92;;;;;;;7.32;39.22;102817.09;5472568;32;34440;-88
2022/03/18 09:55:34;;;;;;;29.17;16.27;;;;;;;7.94;38.05;102817.19;5473631;32;33815;-88
2022/03/18 09:58:38;;;;;;;25.37;16.83;;;;;;;7.76;38.92;102819.81;5472479;32;33892;-87
2022/03/18 10:01:41;;;;;;;27.50;17.20;;;;;;;7.62;39.33;102820.69;5470276;32;35428;-87
2022/03/18 10:04:51;;;;;;;31.52;18.12;;;;;;;8.40;38.58;102827.78;5475270;32;33760;-87
2022/03/18 10:07:54;;;;;;;33.50;18.60;;;;;;;8.03;39.13;102829.53;5476708;32;34247;-86
2022/03/18 10:10:57;;;;;;;28.33;18.10;;;;;;;7.62;41.70;102828.62;5473611;32;34159;-86
2022/03/18 10:14:03;;;;;;;30.48;18.92;;;;;;;8.42;39.93;102826.00;5478019;32;33532;-86
2022/03/18 10:17:08;;;;;;;32.10;19.15;;;;;;;8.10;40.31;102835.72;5481662;32;34334;-86
2022/03/18 10:20:27;;;;;;;31.60;18.73;;;;;;;7.95;40.61;102831.31;5477612;32;34029;-86
2022/03/18 10:23:30;;;;;;;32.30;19.85;;;;;;;7.31;42.24;102830.28;5474007;32;33966;-85
2022/03/18 10:26:35;;;;;;;39.60;19.75;;;;;;;7.57;42.21;102825.06;5476727;32;34316;-86
2022/03/18 10:29:46;;;;;;;37.78;19.77;;;;;;;8.04;41.38;102833.94;5459159;32;34129;-86
2022/03/18 10:32:49;;;;;;;;;;;;;;;7.54;42.56;102831.22;5462191;32;35270;-86
2022/03/18 10:39:42;;;;;;;34.60;19.85;;;;;;;9.46;39.86;102815.09;5462898;32;34858;-86
2022/03/18 10:43:02;;;;;;;37.00;20.30;;;;;;;10.34;38.39;102823.25;5462067;32;33843;-86
2022/03/18 10:46:06;;;;;;;31.70;20.37;;;;;;;10.88;36.91;102820.06;5450057;32;34062;-91
2022/03/18 10:49:13;;;;;;;35.30;20.92;;;;;;;10.23;38.53;102823.34;5468223;32;34150;-86
2022/03/18 10:52:15;;;;;;;40.28;21.90;;;;;;;9.88;39.73;102821.88;5479926;32;33692;-86
2022/03/18 10:55:20;;;;;;;32.72;20.37;;;;;;;9.98;39.98;102826.22;5477989;32;34760;-87
2022/03/18 10:58:23;;;;;;;38.95;22.27;;;;;;;10.72;38.12;102826.44;5476926;32;33935;-86
2022/03/18 11:01:26;;;;;;;34.22;21.62;;;;;;;10.57;38.68;102824.84;5479673;32;34675;-86
2022/03/18 11:04:29;;;;;;;41.00;25.37;;;;;;;10.54;40.54;102822.19;5476121;32;34115;-86
2022/03/18 11:07:41;;;;;;;39.00;23.50;;;;;;;9.54;44.11;102820.31;5475240;32;33858;-87
2022/03/18 11:11:07;;;;;;;38.03;23.30;;;;;;;9.46;44.86;102824.81;5479908;32;33942;-85
2022/03/18 11:14:13;;;;;;;40.22;21.70;;;;;;;10.01;42.28;102820.88;5484132;32;34207;-86
2022/03/18 11:17:16;;;;;;;42.75;23.75;;;;;;;10.29;42.20;102811.78;5483596;32;34034;-87
2022/03/18 11:20:21;;;;;;;41.97;24.65;;;;;;;10.13;43.13;102819.00;5479902;32;34171;-85
2022/03/18 11:23:25;;;;;;;44.63;24.65;;;;;;;9.32;43.96;102815.16;5491610;32;34461;-86
2022/03/18 11:26:35;;;;;;;38.10;23.25;;;;;;;9.94;42.86;102808.56;5483592;32;34119;-85
2022/03/18 11:29:39;;;;;;;41.65;23.83;;;;;;;10.09;42.97;102808.44;5482648;32;34371;-85
2022/03/18 11:32:42;;;;;;;38.30;24.42;;;;;;;10.28;41.96;102807.38;5482574;32;33644;-85
2022/03/18 11:35:48;;;;;;;46.10;24.05;;;;;;;9.68;43.54;102797.28;5488176;32;34222;-87
2022/03/18 11:39:02;;;;;;;42.53;24.40;;;;;;;10.82;42.04;102790.06;5477594;32;35302;-87
2022/03/18 11:42:10;;;;;;;38.60;24.35;;;;;;;11.42;40.87;102783.06;5481226;32;34074;-87
2022/03/18 11:45:34;;;;;;;40.85;24.60;;;;;;;10.04;43.83;102790.81;5479144;32;33975;-87
2022/03/18 11:48:37;;;;;;;39.00;24.12;;;;;;;10.43;44.02;102785.16;5480424;32;34118;-86
2022/03/18 11:51:42;;;;;;;39.88;24.83;;;;;;;10.97;41.73;102787.19;5495499;32;34076;-91
2022/03/18 11:55:06;;;;;;;41.37;23.15;;;;;;;10.35;42.92;102786.09;5497367;32;34276;-91
2022/03/18 11:58:27;;;;;;;40.17;23.42;;;;;;;10.73;42.52;102783.06;5482718;32;33869;-87
2022/03/18 12:01:41;;;;;;;40.50;24.87;;;;;;;10.90;41.65;102782.84;5485126;32;34242;-87
2022/03/18 12:04:52;;;;;;;38.90;23.62;;;;;;;10.54;42.64;102779.75;5473327;32;34479;-86
2022/03/18 12:07:56;;;;;;;41.72;25.12;;;;;;;10.77;42.06;102772.37;5479649;32;35077;-86
2022/03/18 12:11:00;;;;;;;45.05;25.20;;;;;;;10.65;42.24;102772.53;5483578;32;34138;-85
2022/03/18 12:14:05;;;;;;;39.42;24.87;;;;;;;10.66;42.26;102766.31;5499893;32;34515;-85
2022/03/18 12:17:08;;;;;;;39.15;23.62;;;;;;;9.81;44.08;102768.03;5498940;32;34136;-86
2022/03/18 12:20:22;;;;;;;40.33;25.52;;;;;;;10.62;43.13;102754.00;5500156;32;33800;-86
2022/03/18 12:23:33;;;;;;;41.90;25.25;;;;;;;10.62;42.97;102746.03;5490862;32;34349;-86
2022/03/18 12:26:37;;;;;;;42.92;25.45;;;;;;;10.89;42.25;102754.56;5477416;32;34190;-86
2022/03/18 12:29:40;;;;;;;44.63;25.95;;;;;;;11.02;42.04;102747.31;5477300;32;34283;-87
2022/03/18 12:33:04;;;;;;;48.97;26.30;;;;;;;11.04;41.49;102743.75;5477709;32;34383;-87
2022/03/18 12:36:08;;;;;;;43.90;24.70;;;;;;;11.00;41.74;102741.13;5484969;32;34005;-85
2022/03/18 12:39:13;;;;;;;43.42;26.05;;;;;;;11.01;41.98;102740.25;5482214;32;34118;-86
2022/03/18 12:42:16;;;;;;;41.35;25.45;;;;;;;10.98;41.87;102742.94;5475548;32;33923;-85
2022/03/18 12:45:36;;;;;;;45.50;25.30;;;;;;;10.66;42.52;102737.12;5475271;32;34775;-85
2022/03/18 12:48:47;;;;;;;39.47;25.05;;;;;;;10.95;42.15;102737.69;5474349;32;35143;-91
2022/03/18 12:51:51;;;;;;;41.67;25.95;;;;;;;11.08;41.83;102733.06;5475500;32;34375;-86
2022/03/18 12:55:08;;;;;;;42.33;26.80;;;;;;;10.83;42.10;102728.97;5481688;32;34106;-86
2022/03/18 12:58:13;;;;;;;41.47;25.88;;;;;;;10.09;43.53;102725.34;5485446;32;35116;-85
2022/03/18 13:01:16;;;;;;;45.38;25.12;;;;;;;10.48;42.99;102717.91;5479524;32;34318;-86
2022/03/18 13:04:21;;;;;;;42.00;25.12;;;;;;;10.60;42.95;102716.84;5481209;32;33849;-85
2022/03/18 13:07:26;;;;;;;44.75;25.90;;;;;;;11.00;42.14;102711.91;5476611;32;33882;-84
2022/03/18 13:10:35;;;;;;;42.08;25.98;;;;;;;10.68;42.32;102716.78;5478567;32;34330;-84
2022/03/18 13:13:50;;;;;;;40.08;25.00;;;;;;;10.41;43.06;102712.62;5475434;32;33775;-85
2022/03/18 13:16:53;;;;;;;45.45;25.77;;;;;;;10.82;42.15;102707.75;5458906;32;34345;-86
2022/03/18 13:19:57;;;;;;;45.78;25.40;;;;;;;10.61;42.86;102700.03;5474796;32;34234;-85
2022/03/18 13:23:00;;;;;;;39.78;24.60;;;;;;;10.58;42.70;102696.53;5475437;32;34596;-85
2022/03/18 13:26:04;;;;;;;39.38;25.27;;;;;;;10.47;42.98;102699.34;5478726;32;33918;-84
2022/03/18 13:29:07;;;;;;;41.37;25.02;;;;;;;10.32;42.97;102695.91;5475860;32;34444;-85
2022/03/18 13:35:50;;;;;;;37.45;24.42;;;;;;;10.68;42.52;102690.22;5468370;32;34176;-85
2022/03/18 13:38:55;;;;;;;37.33;24.35;;;;;;;10.86;42.12;102694.41;5483895;32;34794;-84
2022/03/18 13:41:59;;;;;;;36.55;24.58;;;;;;;11.25;40.91;102695.63;5486478;32;34305;-85
2022/03/18 13:45:03;;;;;;;36.90;24.23;;;;;;;11.09;41.21;102684.34;5476225;32;34204;-86
2022/03/18 13:48:10;;;;;;;37.67;24.23;;;;;;;10.61;42.18;102688.56;5478858;32;34030;-86
2022/03/18 13:51:31;;;;;;;37.28;23.27;;;;;;;10.96;41.69;102684.53;5474563;32;33965;-85
2022/03/18 13:54:53;;;;;;;40.08;23.30;;;;;;;11.10;41.48;102688.75;5482334;32;34456;-85
2022/03/18 13:57:57;;;;;;;34.88;22.67;;;;;;;10.84;41.37;102690.00;5482850;32;34918;-85
2022/03/18 14:01:08;;;;;;;35.00;22.77;;;;;;;10.60;41.60;102678.81;5482955;32;34399;-85
2022/03/18 14:04:11;;;;;;;33.08;21.87;;;;;;;10.33;41.95;102683.53;5487583;32;32915;-84
2022/03/18 14:07:15;;;;;;;35.58;21.42;;;;;;;10.64;41.22;102681.44;5462987;32;34831;-86
2022/03/18 14:10:20;;;;;;;35.33;22.67;;;;;;;10.55;40.63;102681.53;5464129;32;33753;-85
2022/03/18 14:13:28;;;;;;;33.10;22.45;;;;;;;10.84;39.94;102669.66;5467420;32;35343;-86
2022/03/18 14:16:31;;;;;;;33.00;20.37;;;;;;;10.98;39.17;102680.09;5476610;32;33689;-86
2022/03/18 14:19:57;;;;;;;33.05;22.13;;;;;;;10.42;39.18;102663.97;5482539;32;34316;-85
2022/03/18 14:23:20;;;;;;;35.33;21.80;;;;;;;10.81;38.83;102669.69;5488511;32;33867;-86
2022/03/18 14:26:24;;;;;;;33.58;21.10;;;;;;;10.55;39.13;102665.59;5492388;32;34965;-86
2022/03/18 14:29:31;;;;;;;33.03;19.90;;;;;;;10.35;38.54;102669.34;5498746;32;34557;-85
2022/03/18 14:32:35;;;;;;;30.48;19.98;;;;;;;10.33;38.07;102668.50;5501460;32;34137;-85
2022/03/18 14:35:40;;;;;;;31.37;20.62;;;;;;;10.29;38.27;102671.19;5505917;32;35266;-85
2022/03/18 14:38:43;;;;;;;36.70;20.77;;;;;;;10.12;39.08;102664.31;5489269;32;34164;-85
2022/03/18 14:41:46;;;;;;;31.55;19.90;;;;;;;10.37;38.08;102670.22;5482159;32;33913;-85
2022/03/18 14:44:49;;;;;;;35.28;21.23;;;;;;;10.12;37.90;102661.69;5479809;32;34798;-85
2022/03/18 14:47:52;;;;;;;32.45;20.10;;;;;;;10.13;38.36;102655.47;5479176;32;34196;-85
2022/03/18 14:50:55;;;;;;;33.13;20.75;;;;;;;10.29;38.34;102657.94;5477153;32;34229;-84
2022/03/18 14:53:58;;;;;;;33.45;20.60;;;;;;;10.39;37.96;102659.59;5500064;32;34664;-85
2022/03/18 14:57:01;;;;;;;34.40;21.45;;;;;;;10.42;37.64;102663.97;5505213;32;34642;-88
2022/03/18 15:00:05;;;;;;;33.28;20.00;;;;;;;9.97;38.28;102655.62;5503178;32;34085;-89
2022/03/18 15:03:09;;;;;;;35.10;21.02;;;;;;;10.00;38.64;102654.72;5498729;32;33872;-89
2022/03/18 15:06:13;;;;;;;33.13;20.77;;;;;;;10.06;38.92;102656.44;5498921;32;34275;-85
2022/03/18 15:09:15;;;;;;;34.45;20.90;;;;;;;9.98;39.02;102656.50;5500085;32;34636;-85
2022/03/18 15:12:19;;;;;;;33.05;21.55;;;;;;;10.20;39.04;102657.16;5495244;32;34940;-85
2022/03/18 15:15:22;;;;;;;32.00;21.40;;;;;;;9.81;39.77;102660.22;5499078;32;34461;-84
2022/03/18 15:18:25;;;;;;;34.20;21.15;;;;;;;9.78;40.09;102657.59;5493461;32;34126;-84
2022/03/18 15:21:28;;;;;;;36.70;22.70;;;;;;;9.96;39.76;102655.66;5473939;32;34007;-84
2022/03/18 15:24:34;;;;;;;33.60;21.95;;;;;;;9.88;39.95;102655.75;5481178;32;33962;-84
2022/03/18 15:27:37;;;;;;;32.70;21.42;;;;;;;9.94;39.92;102650.37;5471703;32;33762;-84
2022/03/18 15:30:40;;;;;;;32.47;21.65;;;;;;;9.82;40.27;102655.78;5479950;32;34049;-84
2022/03/18 15:33:44;;;;;;;30.75;21.70;;;;;;;9.64;40.79;102656.84;5479622;32;34091;-84
2022/03/18 15:36:47;;;;;;;34.20;22.00;;;;;;;9.74;40.70;102657.63;5480963;32;34274;-84
2022/03/18 15:39:51;;;;;;;31.73;21.12;;;;;;;9.50;41.25;102654.34;5487596;32;34826;-84
2022/03/18 15:42:55;;;;;;;32.58;21.10;;;;;;;9.68;40.60;102664.75;5489582;32;35305;-84
2022/03/18 15:46:07;;;;;;;38.03;22.95;;;;;;;9.69;40.22;102665.62;5483971;32;35341;-84
2022/03/18 15:49:10;;;;;;;36.58;21.30;;;;;;;9.64;40.68;102662.12;5479571;32;33799;-84
2022/03/18 15:52:13;;;;;;;38.35;22.95;;;;;;;9.45;41.27;102659.66;5479771;32;34872;-84
2022/03/18 15:55:19;;;;;;;36.45;22.48;;;;;;;9.18;41.85;102658.97;5476622;32;33887;-84
2022/03/18 15:58:25;;;;;;;36.45;22.00;;;;;;;9.14;42.36;102666.06;5476071;32;33868;-84
2022/03/18 16:01:29;;;;;;;39.25;23.45;;;;;;;8.95;43.13;102664.44;5477656;32;34315;-84
2022/03/18 16:04:32;;;;;;;35.85;21.40;;;;;;;8.92;43.03;102657.37;5479573;32;34612;-84
2022/03/18 16:07:35;;;;;;;41.65;21.83;;;;;;;8.88;42.97;102660.94;5479070;32;34393;-84
2022/03/18 16:10:39;;;;;;;37.22;22.85;;;;;;;8.84;43.15;102656.53;5479112;32;34530;-85
2022/03/18 16:13:42;;;;;;;37.45;22.25;;;;;;;8.55;43.43;102654.94;5479141;32;34233;-84
2022/03/18 16:16:46;;;;;;;39.13;21.52;;;;;;;8.76;42.99;102659.25;5479600;32;34000;-84
